Time,TemperatureF,DewpointF,PressureIn,WindDirection,WindDirectionDegrees,WindSpeedMPH,WindSpeedGustMPH,Humidity,HourlyPrecipIn,Conditions,Clouds,dailyrainin,SoftwareType,DateUTC
2013-06-28 00:01:00,63.7,62.5,29.63,ENE,74,0.0,0.0,96,0.00,,BKN047,0.00,VWS V13.01,2013-06-28 04:01:00,
2013-06-28 00:02:00,63.7,62.5,29.63,ENE,74,0.0,0.0,96,0.00,,BKN047,0.00,VWS V13.01,2013-06-28 04:02:00,
2013-06-28 00:07:00,63.6,62.4,29.63,ENE,74,0.0,0.0,96,0.00,,-RA,0.00,VWS V13.01,2013-06-28 04:07:00,
2013-06-28 00:12:00,63.5,62.0,29.63,ENE,74,0.0,0.0,95,0.00,,-RA,0.00,VWS V13.01,2013-06-28 04:12:00,
2013-06-28 00:17:00,63.4,62.0,29.63,ENE,74,0.0,0.0,95,0.00,,-RA,0.00,VWS V13.01,2013-06-28 04:17:00,
2013-06-28 00:22:00,63.3,62.1,29.63,ENE,74,0.0,0.0,96,0.00,,-RA,0.00,VWS V13.01,2013-06-28 04:22:00,
2013-06-28 00:27:00,63.2,62.0,29.63,ENE,74,0.0,0.0,96,0.00,,-RA,0.00,VWS V13.01,2013-06-28 04:27:00,
2013-06-28 00:32:00,63.1,61.9,29.62,ENE,74,1.0,2.0,96,0.00,,-RA,0.00,VWS V13.01,2013-06-28 04:32:00,
2013-06-28 00:37:00,63.1,61.9,29.62,ENE,74,1.0,2.0,96,0.00,,-RA,0.00,VWS V13.01,2013-06-28 04:37:00,
2013-06-28 00:42:00,63.0,61.8,29.63,ENE,74,1.0,1.0,96,0.00,,-RA,0.00,VWS V13.01,2013-06-28 04:42:00,
2013-06-28 00:47:00,62.9,61.8,29.62,ENE,74,0.0,1.0,96,0.00,,-RA,0.00,VWS V13.01,2013-06-28 04:47:00,
2013-06-28 00:52:00,62.8,61.7,29.62,ENE,74,0.0,0.0,96,0.00,,-RA,0.00,VWS V13.01,2013-06-28 04:52:00,
2013-06-28 00:57:00,62.7,61.5,29.62,ENE,74,0.0,0.0,96,0.00,,-RA,0.00,VWS V13.01,2013-06-28 04:57:00,
2013-06-28 01:02:00,62.7,61.5,29.62,ENE,74,0.0,0.0,96,0.00,,-RA,0.00,VWS V13.01,2013-06-28 05:02:00,
2013-06-28 01:07:00,62.7,61.5,29.62,ENE,74,0.0,0.0,96,0.00,,FEW085,0.00,VWS V13.01,2013-06-28 05:07:00,
2013-06-28 01:12:00,62.6,61.5,29.62,ENE,74,0.0,0.0,96,0.00,,FEW085,0.00,VWS V13.01,2013-06-28 05:12:00,
2013-06-28 01:17:00,62.5,61.3,29.62,ENE,74,0.0,0.0,96,0.00,,FEW085,0.00,VWS V13.01,2013-06-28 05:17:00,
2013-06-28 01:22:00,62.6,61.7,29.62,NE,36,0.0,0.0,97,0.00,,FEW085,0.00,VWS V13.01,2013-06-28 05:22:00,
2013-06-28 01:27:00,62.7,61.8,29.62,NE,35,0.0,0.0,97,0.00,,FEW085,0.00,VWS V13.01,2013-06-28 05:27:00,
2013-06-28 01:32:00,62.6,61.5,29.62,NE,35,0.0,0.0,96,0.00,,FEW085,0.00,VWS V13.01,2013-06-28 05:32:00,
2013-06-28 01:37:00,62.6,61.5,29.62,NE,35,0.0,0.0,96,0.00,,FEW085,0.00,VWS V13.01,2013-06-28 05:37:00,
2013-06-28 01:42:00,62.5,61.3,29.62,NE,35,0.0,0.0,96,0.00,,FEW085,0.00,VWS V13.01,2013-06-28 05:42:00,
2013-06-28 01:47:00,62.5,61.6,29.61,NE,35,0.0,0.0,97,0.00,,FEW085,0.00,VWS V13.01,2013-06-28 05:47:00,
2013-06-28 01:52:00,62.5,61.6,29.61,NE,36,0.0,0.0,97,0.00,,FEW085,0.00,VWS V13.01,2013-06-28 05:52:00,
2013-06-28 01:57:00,62.5,61.6,29.62,NE,34,1.0,2.0,97,0.00,,FEW085,0.00,VWS V13.01,2013-06-28 05:57:00,
2013-06-28 02:02:00,62.5,61.6,29.61,NE,34,0.0,2.0,97,0.00,,BKN025,0.00,VWS V13.01,2013-06-28 06:02:00,
2013-06-28 02:07:00,62.5,61.6,29.61,NE,34,1.0,2.0,97,0.00,,BKN025,0.00,VWS V13.01,2013-06-28 06:07:00,
2013-06-28 02:13:00,62.5,61.6,29.61,NE,34,0.0,1.0,97,0.00,,BKN025,0.00,VWS V13.01,2013-06-28 06:13:00,
2013-06-28 02:18:00,62.4,61.5,29.61,NE,34,0.0,0.0,97,0.00,,BKN025,0.00,VWS V13.01,2013-06-28 06:18:00,
2013-06-28 02:23:00,62.3,61.4,29.61,NE,34,0.0,0.0,97,0.00,,BKN025,0.00,VWS V13.01,2013-06-28 06:23:00,
2013-06-28 02:28:00,62.3,61.4,29.60,NE,34,0.0,1.0,97,0.00,,BKN025,0.00,VWS V13.01,2013-06-28 06:28:00,
2013-06-28 02:33:00,62.2,61.3,29.61,NE,34,0.0,1.0,97,0.00,,BKN025,0.00,VWS V13.01,2013-06-28 06:33:00,
2013-06-28 02:38:00,62.2,61.3,29.61,NE,34,0.0,1.0,97,0.00,,BKN025,0.00,VWS V13.01,2013-06-28 06:38:00,
2013-06-28 02:43:00,62.1,61.2,29.61,NE,34,0.0,1.0,97,0.00,,BKN025,0.00,VWS V13.01,2013-06-28 06:43:00,
2013-06-28 02:48:00,62.1,61.2,29.61,NE,34,0.0,2.0,97,0.00,,BKN025,0.00,VWS V13.01,2013-06-28 06:48:00,
2013-06-28 02:53:00,62.0,61.1,29.60,NE,34,0.0,0.0,97,0.00,,BKN025,0.00,VWS V13.01,2013-06-28 06:53:00,
2013-06-28 02:58:00,62.0,61.1,29.60,NE,34,0.0,0.0,97,0.00,,BKN025,0.00,VWS V13.01,2013-06-28 06:58:00,
2013-06-28 03:03:00,62.0,61.1,29.60,NE,34,0.0,0.0,97,0.00,,OVC070,0.00,VWS V13.01,2013-06-28 07:03:00,
2013-06-28 03:08:00,61.9,61.0,29.61,NE,34,0.0,0.0,97,0.00,,OVC070,0.00,VWS V13.01,2013-06-28 07:08:00,
2013-06-28 03:13:00,61.9,61.0,29.61,NE,34,0.0,0.0,97,0.00,,OVC070,0.00,VWS V13.01,2013-06-28 07:13:00,
2013-06-28 03:18:00,61.9,61.0,29.60,NE,34,0.0,0.0,97,0.00,,OVC070,0.00,VWS V13.01,2013-06-28 07:18:00,
2013-06-28 03:23:00,61.9,61.0,29.60,NE,34,0.0,0.0,97,0.00,,OVC070,0.00,VWS V13.01,2013-06-28 07:23:00,
2013-06-28 03:28:00,62.0,61.1,29.60,NE,34,0.0,0.0,97,0.00,,OVC070,0.00,VWS V13.01,2013-06-28 07:28:00,
2013-06-28 03:33:00,62.0,61.1,29.60,NE,34,0.0,0.0,97,0.00,,OVC070,0.00,VWS V13.01,2013-06-28 07:33:00,
2013-06-28 03:38:00,62.0,61.1,29.59,NE,34,0.0,0.0,97,0.00,,OVC070,0.00,VWS V13.01,2013-06-28 07:38:00,
2013-06-28 03:43:00,62.1,61.2,29.59,NE,34,0.0,0.0,97,0.00,,OVC070,0.00,VWS V13.01,2013-06-28 07:43:00,
2013-06-28 03:48:00,62.1,61.5,29.59,NE,34,0.0,0.0,98,0.00,,OVC070,0.00,VWS V13.01,2013-06-28 07:48:00,
2013-06-28 03:53:00,62.2,61.6,29.59,NE,34,0.0,0.0,98,0.00,,OVC070,0.00,VWS V13.01,2013-06-28 07:53:00,
2013-06-28 03:58:00,62.3,61.7,29.59,NE,34,0.0,0.0,98,0.00,,OVC070,0.00,VWS V13.01,2013-06-28 07:58:00,
2013-06-28 04:03:00,62.3,61.7,29.59,NE,34,0.0,0.0,98,0.00,,OVC035,0.00,VWS V13.01,2013-06-28 08:03:00,
2013-06-28 04:08:00,62.3,61.4,29.58,NE,34,0.0,0.0,97,0.00,,OVC035,0.00,VWS V13.01,2013-06-28 08:08:00,
2013-06-28 04:13:00,62.3,61.7,29.58,NE,34,0.0,0.0,98,0.00,,OVC035,0.00,VWS V13.01,2013-06-28 08:13:00,
2013-06-28 04:18:00,62.4,61.8,29.58,NE,34,0.0,0.0,98,0.00,,OVC035,0.00,VWS V13.01,2013-06-28 08:18:00,
2013-06-28 04:23:00,62.5,61.9,29.58,NE,34,0.0,0.0,98,0.00,,OVC035,0.00,VWS V13.01,2013-06-28 08:23:00,
2013-06-28 04:28:00,62.7,62.1,29.58,NE,34,0.0,0.0,98,0.00,,OVC035,0.00,VWS V13.01,2013-06-28 08:28:00,
2013-06-28 04:33:00,62.8,62.2,29.58,NE,34,0.0,0.0,98,0.00,,OVC035,0.00,VWS V13.01,2013-06-28 08:33:00,
2013-06-28 04:38:00,63.0,62.4,29.57,NE,34,0.0,0.0,98,0.00,,OVC035,0.00,VWS V13.01,2013-06-28 08:38:00,
2013-06-28 04:43:00,63.0,62.4,29.57,NE,34,0.0,0.0,98,0.00,,OVC035,0.00,VWS V13.01,2013-06-28 08:43:00,
2013-06-28 04:48:00,63.1,62.5,29.57,NE,34,0.0,0.0,98,0.00,,OVC035,0.00,VWS V13.01,2013-06-28 08:48:00,
2013-06-28 04:53:00,63.2,62.6,29.57,NNE,32,0.0,0.0,98,0.00,,OVC035,0.00,VWS V13.01,2013-06-28 08:53:00,
2013-06-28 04:58:00,63.2,62.6,29.57,NNE,32,0.0,0.0,98,0.00,,OVC035,0.00,VWS V13.01,2013-06-28 08:58:00,
2013-06-28 05:03:00,63.2,62.6,29.57,NNE,32,0.0,0.0,98,0.00,,RA,0.00,VWS V13.01,2013-06-28 09:03:00,
2013-06-28 05:08:00,63.3,62.7,29.57,NNE,32,0.0,0.0,98,0.00,,RA,0.00,VWS V13.01,2013-06-28 09:08:00,
2013-06-28 05:13:00,63.4,62.8,29.57,NNE,32,0.0,0.0,98,0.00,,RA,0.00,VWS V13.01,2013-06-28 09:13:00,
2013-06-28 05:18:00,63.5,62.9,29.57,NNE,32,0.0,0.0,98,0.00,,RA,0.00,VWS V13.01,2013-06-28 09:18:00,
2013-06-28 05:23:00,63.6,63.0,29.57,NNE,32,2.0,2.0,98,0.00,,RA,0.00,VWS V13.01,2013-06-28 09:23:00,
2013-06-28 05:28:00,63.7,63.1,29.57,NNE,32,1.0,3.0,98,0.00,,RA,0.00,VWS V13.01,2013-06-28 09:28:00,
2013-06-28 05:33:00,63.8,63.2,29.57,North,355,1.0,3.0,98,0.00,,RA,0.00,VWS V13.01,2013-06-28 09:33:00,
2013-06-28 05:38:00,63.8,63.2,29.57,North,350,1.0,3.0,98,0.00,,RA,0.00,VWS V13.01,2013-06-28 09:38:00,
2013-06-28 05:43:00,63.8,62.9,29.57,NW,306,2.0,4.0,97,0.00,,RA,0.00,VWS V13.01,2013-06-28 09:43:00,
2013-06-28 05:48:00,63.9,63.0,29.57,NW,317,2.0,5.0,97,0.00,,RA,0.00,VWS V13.01,2013-06-28 09:48:00,
2013-06-28 05:54:00,63.9,63.0,29.57,NW,317,3.0,3.0,97,0.00,,RA,0.00,VWS V13.01,2013-06-28 09:54:00,
2013-06-28 05:59:00,63.9,63.0,29.57,NW,318,1.0,4.0,97,0.00,,RA,0.00,VWS V13.01,2013-06-28 09:59:00,
2013-06-28 06:04:00,63.9,63.0,29.57,NW,319,1.0,4.0,97,0.00,,RA,0.00,VWS V13.01,2013-06-28 10:04:00,
2013-06-28 06:09:00,63.9,62.7,29.57,NW,311,0.0,3.0,96,0.00,,RA,0.00,VWS V13.01,2013-06-28 10:09:00,
2013-06-28 06:14:00,63.9,62.7,29.57,NW,311,0.0,2.0,96,0.00,,RA,0.00,VWS V13.01,2013-06-28 10:14:00,
2013-06-28 06:19:00,63.9,62.7,29.57,NW,311,0.0,1.0,96,0.00,,RA,0.00,VWS V13.01,2013-06-28 10:19:00,
2013-06-28 06:24:00,63.9,62.7,29.57,NW,311,0.0,1.0,96,0.00,,RA,0.00,VWS V13.01,2013-06-28 10:24:00,
2013-06-28 06:29:00,64.0,62.8,29.57,NW,311,1.0,2.0,96,0.00,,RA,0.00,VWS V13.01,2013-06-28 10:29:00,
2013-06-28 06:34:00,64.0,62.8,29.57,NW,311,1.0,2.0,96,0.00,,RA,0.00,VWS V13.01,2013-06-28 10:34:00,
2013-06-28 06:39:00,64.1,62.9,29.57,NW,311,2.0,2.0,96,0.00,,RA,0.00,VWS V13.01,2013-06-28 10:39:00,
2013-06-28 06:44:00,64.1,62.9,29.57,NNW,341,1.0,4.0,96,0.00,,RA,0.00,VWS V13.01,2013-06-28 10:44:00,
2013-06-28 06:49:00,64.1,62.9,29.57,NNW,333,1.0,4.0,96,0.00,,RA,0.00,VWS V13.01,2013-06-28 10:49:00,
2013-06-28 06:54:00,64.2,62.7,29.56,NNW,331,1.0,3.0,95,0.00,,RA,0.00,VWS V13.01,2013-06-28 10:54:00,
2013-06-28 06:59:00,64.2,62.7,29.56,NNW,331,2.0,3.0,95,0.00,,RA,0.00,VWS V13.01,2013-06-28 10:59:00,
2013-06-28 07:04:00,64.2,62.7,29.56,NNW,331,1.0,5.0,95,0.00,,,0.00,VWS V13.01,2013-06-28 11:04:00,
2013-06-28 07:09:00,64.3,63.1,29.56,NNW,331,0.0,2.0,96,0.00,,,0.00,VWS V13.01,2013-06-28 11:09:00,
2013-06-28 07:14:00,64.3,63.1,29.57,NNW,331,0.0,2.0,96,0.00,,,0.00,VWS V13.01,2013-06-28 11:14:00,
2013-06-28 07:19:00,64.4,63.2,29.56,NNW,328,0.0,1.0,96,0.00,,,0.00,VWS V13.01,2013-06-28 11:19:00,
2013-06-28 07:24:00,64.5,63.3,29.56,NNW,332,0.0,2.0,96,0.00,,,0.00,VWS V13.01,2013-06-28 11:24:00,
2013-06-28 07:29:00,64.6,63.1,29.56,NNW,334,0.0,2.0,95,0.00,,,0.00,VWS V13.01,2013-06-28 11:29:00,
2013-06-28 07:34:00,64.7,63.2,29.57,NNW,338,0.0,2.0,95,0.00,,,0.00,VWS V13.01,2013-06-28 11:34:00,
2013-06-28 07:39:00,64.8,63.3,29.57,NNW,342,0.0,1.0,95,0.00,,,0.00,VWS V13.01,2013-06-28 11:39:00,
2013-06-28 07:44:00,64.9,63.4,29.56,NNW,347,0.0,2.0,95,0.00,,,0.00,VWS V13.01,2013-06-28 11:44:00,
2013-06-28 07:49:00,65.0,63.5,29.56,North,355,0.0,1.0,95,0.00,,,0.00,VWS V13.01,2013-06-28 11:49:00,
2013-06-28 07:54:00,65.1,63.6,29.56,North,355,0.0,1.0,95,0.00,,,0.00,VWS V13.01,2013-06-28 11:54:00,
2013-06-28 07:59:00,65.2,63.7,29.56,NNE,12,2.0,2.0,95,0.00,,,0.00,VWS V13.01,2013-06-28 11:59:00,
2013-06-28 08:04:00,65.1,63.6,29.56,NNE,23,0.0,2.0,95,0.00,,OVC036,0.00,VWS V13.01,2013-06-28 12:04:00,
2013-06-28 08:09:00,65.3,63.8,29.56,NNE,14,1.0,1.0,95,0.00,,OVC036,0.00,VWS V13.01,2013-06-28 12:09:00,
2013-06-28 08:14:00,65.4,63.9,29.56,North,5,0.0,3.0,95,0.00,,OVC036,0.00,VWS V13.01,2013-06-28 12:14:00,
2013-06-28 08:19:00,65.5,64.0,29.56,North,5,0.0,2.0,95,0.00,,OVC036,0.00,VWS V13.01,2013-06-28 12:19:00,
2013-06-28 08:24:00,65.5,64.0,29.56,North,5,0.0,1.0,95,0.00,,OVC036,0.00,VWS V13.01,2013-06-28 12:24:00,
2013-06-28 08:29:00,65.4,63.6,29.56,ENE,59,0.0,5.0,94,0.00,,OVC036,0.00,VWS V13.01,2013-06-28 12:29:00,
2013-06-28 08:34:00,65.3,63.5,29.56,ENE,59,0.0,1.0,94,0.00,,OVC036,0.00,VWS V13.01,2013-06-28 12:34:00,
2013-06-28 08:39:00,65.4,63.6,29.56,NE,51,1.0,2.0,94,0.00,,OVC036,0.00,VWS V13.01,2013-06-28 12:39:00,
2013-06-28 08:44:00,65.4,63.9,29.56,NE,51,0.0,2.0,95,0.00,,OVC036,0.00,VWS V13.01,2013-06-28 12:44:00,
2013-06-28 08:49:00,65.4,63.6,29.56,NE,51,0.0,1.0,94,0.00,,OVC036,0.00,VWS V13.01,2013-06-28 12:49:00,
2013-06-28 08:54:00,65.4,63.6,29.55,NE,53,0.0,4.0,94,0.00,,OVC036,0.00,VWS V13.01,2013-06-28 12:54:00,
2013-06-28 08:59:00,65.4,63.6,29.56,NE,49,0.0,2.0,94,0.00,,OVC036,0.00,VWS V13.01,2013-06-28 12:59:00,
2013-06-28 09:04:00,65.5,63.7,29.55,NE,49,0.0,2.0,94,0.00,,OVC005,0.00,VWS V13.01,2013-06-28 13:04:00,
2013-06-28 09:09:00,65.7,63.9,29.55,NE,49,0.0,1.0,94,0.00,,OVC005,0.00,VWS V13.01,2013-06-28 13:09:00,
2013-06-28 09:14:00,65.8,64.0,29.55,NE,49,1.0,2.0,94,0.00,,OVC005,0.00,VWS V13.01,2013-06-28 13:14:00,
2013-06-28 09:19:00,65.8,63.7,29.55,NE,52,0.0,3.0,93,0.00,,OVC005,0.00,VWS V13.01,2013-06-28 13:19:00,
2013-06-28 09:24:00,65.9,63.8,29.55,NE,52,1.0,1.0,93,0.00,,OVC005,0.00,VWS V13.01,2013-06-28 13:24:00,
2013-06-28 09:29:00,65.9,63.8,29.55,NE,52,1.0,3.0,93,0.00,,OVC005,0.00,VWS V13.01,2013-06-28 13:29:00,
2013-06-28 09:34:00,65.8,63.7,29.55,NE,52,0.0,2.0,93,0.00,,OVC005,0.00,VWS V13.01,2013-06-28 13:34:00,
2013-06-28 09:39:00,65.7,63.6,29.55,NE,52,0.0,1.0,93,0.00,,OVC005,0.00,VWS V13.01,2013-06-28 13:39:00,
2013-06-28 09:44:00,65.7,63.6,29.55,NE,50,0.0,1.0,93,0.00,,OVC005,0.00,VWS V13.01,2013-06-28 13:44:00,
2013-06-28 09:49:00,65.7,63.6,29.55,NE,50,0.0,1.0,93,0.00,,OVC005,0.00,VWS V13.01,2013-06-28 13:49:00,
2013-06-28 09:55:00,65.7,63.6,29.55,NE,50,0.0,1.0,93,0.00,,OVC005,0.00,VWS V13.01,2013-06-28 13:55:00,
2013-06-28 10:00:00,65.8,63.7,29.55,NE,50,0.0,2.0,93,0.00,,OVC005,0.00,VWS V13.01,2013-06-28 14:00:00,
2013-06-28 10:05:00,65.9,63.8,29.55,NE,50,0.0,1.0,93,0.00,,OVC005,0.00,VWS V13.01,2013-06-28 14:05:00,
2013-06-28 10:10:00,66.0,63.6,29.55,NE,50,0.0,1.0,92,0.00,,OVC005,0.00,VWS V13.01,2013-06-28 14:10:00,
2013-06-28 10:15:00,66.1,63.7,29.55,NE,50,0.0,1.0,92,0.00,,OVC005,0.00,VWS V13.01,2013-06-28 14:15:00,
2013-06-28 10:20:00,66.2,63.8,29.55,NE,50,0.0,1.0,92,0.00,,OVC005,0.00,VWS V13.01,2013-06-28 14:20:00,
2013-06-28 10:25:00,66.2,63.8,29.55,NE,36,0.0,2.0,92,0.00,,OVC005,0.00,VWS V13.01,2013-06-28 14:25:00,
2013-06-28 10:30:00,66.3,63.9,29.55,ENE,59,0.0,3.0,92,0.00,,OVC005,0.00,VWS V13.01,2013-06-28 14:30:00,
2013-06-28 10:35:00,66.4,64.0,29.55,ENE,59,0.0,3.0,92,0.00,,OVC005,0.00,VWS V13.01,2013-06-28 14:35:00,
2013-06-28 10:40:00,66.5,64.1,29.55,ENE,59,1.0,2.0,92,0.00,,OVC005,0.00,VWS V13.01,2013-06-28 14:40:00,
2013-06-28 10:45:00,66.6,64.2,29.55,NE,51,0.0,3.0,92,0.00,,OVC005,0.00,VWS V13.01,2013-06-28 14:45:00,
2013-06-28 10:50:00,67.0,64.6,29.55,NNE,29,1.0,2.0,92,0.00,,OVC005,0.00,VWS V13.01,2013-06-28 14:50:00,
2013-06-28 10:55:00,67.3,64.6,29.55,NNE,32,0.0,3.0,91,0.00,,OVC005,0.00,VWS V13.01,2013-06-28 14:55:00,
2013-06-28 11:00:00,67.4,64.4,29.55,NNE,26,1.0,2.0,90,0.00,,OVC005,0.00,VWS V13.01,2013-06-28 15:00:00,
2013-06-28 11:05:00,67.6,64.6,29.55,NNE,26,0.0,1.0,90,0.00,,OVC005,0.00,VWS V13.01,2013-06-28 15:05:00,
2013-06-28 11:10:00,67.7,65.0,29.55,NNE,26,1.0,2.0,91,0.00,,OVC005,0.00,VWS V13.01,2013-06-28 15:10:00,
2013-06-28 11:15:00,67.6,64.6,29.55,NNE,15,1.0,3.0,90,0.00,,OVC005,0.00,VWS V13.01,2013-06-28 15:15:00,
2013-06-28 11:20:00,67.3,64.6,29.55,NNE,15,0.0,3.0,91,0.00,,OVC005,0.00,VWS V13.01,2013-06-28 15:20:00,
2013-06-28 11:25:00,67.2,64.5,29.55,NNE,15,1.0,1.0,91,0.00,,OVC005,0.00,VWS V13.01,2013-06-28 15:25:00,
2013-06-28 11:30:00,67.0,64.6,29.55,NNE,15,0.0,0.0,92,0.00,,OVC005,0.00,VWS V13.01,2013-06-28 15:30:00,
2013-06-28 11:35:00,67.0,64.6,29.55,NNE,15,0.0,1.0,92,0.00,,OVC005,0.00,VWS V13.01,2013-06-28 15:35:00,
2013-06-28 11:40:00,66.9,64.5,29.55,NNE,13,0.0,2.0,92,0.00,,OVC005,0.00,VWS V13.01,2013-06-28 15:40:00,
2013-06-28 11:45:00,66.8,64.7,29.55,NNE,13,0.0,1.0,93,0.00,,OVC005,0.00,VWS V13.01,2013-06-28 15:45:00,
2013-06-28 11:50:00,66.8,64.7,29.55,NNE,13,1.0,2.0,93,0.00,,OVC005,0.00,VWS V13.01,2013-06-28 15:50:00,
2013-06-28 11:55:00,66.8,64.7,29.55,NNE,13,0.0,2.0,93,0.00,,OVC005,0.00,VWS V13.01,2013-06-28 15:55:00,
2013-06-28 12:00:00,66.7,64.6,29.55,North,9,1.0,3.0,93,0.00,,OVC005,0.00,VWS V13.01,2013-06-28 16:00:00,
2013-06-28 12:05:00,66.6,64.5,29.55,North,9,2.0,2.0,93,0.00,,OVC018,0.00,VWS V13.01,2013-06-28 16:05:00,
2013-06-28 12:10:00,66.5,64.4,29.55,WNW,283,3.0,5.0,93,0.00,,OVC018,0.00,VWS V13.01,2013-06-28 16:10:00,
2013-06-28 12:15:00,66.4,64.3,29.55,NW,314,2.0,4.0,93,0.00,,OVC018,0.00,VWS V13.01,2013-06-28 16:15:00,
2013-06-28 12:20:00,66.4,64.3,29.56,WNW,296,1.0,4.0,93,0.00,,OVC018,0.00,VWS V13.01,2013-06-28 16:20:00,
2013-06-28 12:25:00,66.5,64.4,29.55,WNW,302,1.0,3.0,93,0.00,,OVC018,0.00,VWS V13.01,2013-06-28 16:25:00,
2013-06-28 12:31:00,66.5,64.4,29.56,WNW,286,2.0,4.0,93,0.00,,OVC018,0.00,VWS V13.01,2013-06-28 16:31:00,
2013-06-28 12:36:00,66.6,64.5,29.56,WNW,289,1.0,3.0,93,0.00,,OVC018,0.00,VWS V13.01,2013-06-28 16:36:00,
2013-06-28 12:41:00,66.5,64.4,29.56,WNW,289,1.0,3.0,93,0.00,,OVC018,0.00,VWS V13.01,2013-06-28 16:41:00,
2013-06-28 12:46:00,66.5,64.4,29.56,NNW,335,1.0,4.0,93,0.00,,OVC018,0.00,VWS V13.01,2013-06-28 16:46:00,
2013-06-28 12:51:00,66.3,64.5,29.56,NNW,339,1.0,4.0,94,0.01,,OVC018,0.01,VWS V13.01,2013-06-28 16:51:00,
2013-06-28 12:56:00,66.3,64.5,29.56,NNW,340,0.0,2.0,94,0.02,,OVC018,0.02,VWS V13.01,2013-06-28 16:56:00,
2013-06-28 13:01:00,66.4,64.9,29.56,NNW,340,0.0,2.0,95,0.02,,OVC018,0.02,VWS V13.01,2013-06-28 17:01:00,
2013-06-28 13:06:00,66.5,65.3,29.56,North,5,1.0,2.0,96,0.03,,-RA,0.03,VWS V13.01,2013-06-28 17:06:00,
2013-06-28 13:11:00,66.6,65.1,29.56,North,5,1.0,2.0,95,0.04,,-RA,0.04,VWS V13.01,2013-06-28 17:11:00,
2013-06-28 13:16:00,66.7,65.5,29.56,North,360,0.0,3.0,96,0.04,,-RA,0.04,VWS V13.01,2013-06-28 17:16:00,
2013-06-28 13:21:00,66.9,65.7,29.56,North,5,1.0,3.0,96,0.05,,-RA,0.05,VWS V13.01,2013-06-28 17:21:00,
2013-06-28 13:26:00,67.2,66.0,29.56,North,5,2.0,2.0,96,0.06,,-RA,0.06,VWS V13.01,2013-06-28 17:26:00,
2013-06-28 13:31:00,67.4,66.2,29.56,NNW,335,2.0,3.0,96,0.06,,-RA,0.06,VWS V13.01,2013-06-28 17:31:00,
2013-06-28 13:36:00,67.6,66.4,29.56,NW,320,1.0,3.0,96,0.06,,-RA,0.06,VWS V13.01,2013-06-28 17:36:00,
2013-06-28 13:41:00,68.0,66.8,29.55,NNW,333,2.0,2.0,96,0.06,,-RA,0.06,VWS V13.01,2013-06-28 17:41:00,
2013-06-28 13:46:00,68.5,67.3,29.55,NNW,333,0.0,3.0,96,0.12,,-RA,0.12,VWS V13.01,2013-06-28 17:46:00,
2013-06-28 13:51:00,68.9,67.7,29.55,NNW,341,0.0,2.0,96,0.12,,-RA,0.12,VWS V13.01,2013-06-28 17:51:00,
2013-06-28 13:56:00,69.3,67.8,29.55,NNW,338,0.0,1.0,95,0.12,,-RA,0.12,VWS V13.01,2013-06-28 17:56:00,
2013-06-28 14:01:00,69.4,67.3,29.55,NNW,338,0.0,2.0,93,0.10,,-RA,0.12,VWS V13.01,2013-06-28 18:01:00,
2013-06-28 14:06:00,69.7,67.3,29.54,NNW,338,0.0,1.0,92,0.10,,-RA,0.12,VWS V13.01,2013-06-28 18:06:00,
2013-06-28 14:11:00,69.9,67.2,29.54,NNW,338,0.0,1.0,91,0.10,,-RA,0.12,VWS V13.01,2013-06-28 18:11:00,
2013-06-28 14:16:00,69.9,67.2,29.54,North,5,1.0,1.0,91,0.10,,-RA,0.12,VWS V13.01,2013-06-28 18:16:00,
2013-06-28 14:21:00,69.9,66.8,29.54,North,5,0.0,1.0,90,0.10,,-RA,0.12,VWS V13.01,2013-06-28 18:21:00,
2013-06-28 14:26:00,69.9,66.5,29.54,NNE,14,1.0,2.0,89,0.10,,-RA,0.12,VWS V13.01,2013-06-28 18:26:00,
2013-06-28 14:31:00,69.9,66.8,29.54,NNE,21,0.0,2.0,90,0.06,,-RA,0.12,VWS V13.01,2013-06-28 18:31:00,
2013-06-28 14:36:00,69.8,66.7,29.54,NNE,26,1.0,2.0,90,0.06,,-RA,0.12,VWS V13.01,2013-06-28 18:36:00,
2013-06-28 14:41:00,69.9,66.8,29.54,NNE,26,0.0,2.0,90,0.06,,-RA,0.12,VWS V13.01,2013-06-28 18:41:00,
2013-06-28 14:46:00,69.8,66.4,29.54,NE,52,0.0,4.0,89,0.06,,-RA,0.12,VWS V13.01,2013-06-28 18:46:00,
2013-06-28 14:51:00,70.2,67.8,29.54,NE,52,0.0,1.0,92,0.06,,-RA,0.12,VWS V13.01,2013-06-28 18:51:00,
2013-06-28 14:56:00,70.3,66.6,29.54,NE,41,3.0,3.0,88,0.06,,-RA,0.12,VWS V13.01,2013-06-28 18:56:00,
2013-06-28 15:01:00,70.1,66.1,29.54,ENE,63,3.0,5.0,87,0.00,,-RA,0.12,VWS V13.01,2013-06-28 19:01:00,
2013-06-28 15:06:00,69.6,65.9,29.53,ENE,64,0.0,4.0,88,0.00,,-RA,0.12,VWS V13.01,2013-06-28 19:06:00,
2013-06-28 15:11:00,69.7,66.6,29.53,NE,47,0.0,2.0,90,0.00,,-RA,0.12,VWS V13.01,2013-06-28 19:11:00,
2013-06-28 15:16:00,70.3,66.9,29.53,North,10,2.0,4.0,89,0.00,,-RA,0.12,VWS V13.01,2013-06-28 19:16:00,
2013-06-28 15:22:00,70.7,67.0,29.53,NNE,27,0.0,4.0,88,0.00,,-RA,0.12,VWS V13.01,2013-06-28 19:22:00,
2013-06-28 15:27:00,71.0,66.6,29.53,NE,56,0.0,3.0,86,0.00,,-RA,0.12,VWS V13.01,2013-06-28 19:27:00,
2013-06-28 15:32:00,71.2,67.1,29.53,NE,48,0.0,2.0,87,0.00,,-RA,0.12,VWS V13.01,2013-06-28 19:32:00,
2013-06-28 15:37:00,70.8,65.7,29.53,East,85,3.0,7.0,84,0.00,,-RA,0.12,VWS V13.01,2013-06-28 19:37:00,
2013-06-28 15:42:00,70.3,65.6,29.54,NE,39,1.0,3.0,85,0.00,,-RA,0.12,VWS V13.01,2013-06-28 19:42:00,
2013-06-28 15:47:00,70.2,66.2,29.54,NW,315,3.0,6.0,87,0.00,,-RA,0.12,VWS V13.01,2013-06-28 19:47:00,
2013-06-28 15:52:00,70.4,66.3,29.53,NE,42,0.0,2.0,87,0.00,,-RA,0.12,VWS V13.01,2013-06-28 19:52:00,
2013-06-28 15:57:00,70.4,65.7,29.54,North,5,2.0,5.0,85,0.00,,-RA,0.12,VWS V13.01,2013-06-28 19:57:00,
2013-06-28 16:02:00,70.1,65.7,29.54,ENE,60,1.0,3.0,86,0.00,,-RA,0.12,VWS V13.01,2013-06-28 20:02:00,
2013-06-28 16:07:00,69.6,65.2,29.54,ENE,63,2.0,2.0,86,0.00,,OVC014,0.12,VWS V13.01,2013-06-28 20:07:00,
2013-06-28 16:12:00,69.1,65.1,29.54,NNE,22,1.0,3.0,87,0.00,,OVC014,0.12,VWS V13.01,2013-06-28 20:12:00,
2013-06-28 16:17:00,68.9,64.9,29.54,NW,317,0.0,2.0,87,0.00,,OVC014,0.12,VWS V13.01,2013-06-28 20:17:00,
2013-06-28 16:22:00,68.9,65.2,29.54,ENE,62,2.0,3.0,88,0.00,,OVC014,0.12,VWS V13.01,2013-06-28 20:22:00,
2013-06-28 16:27:00,68.7,64.7,29.54,ESE,120,0.0,2.0,87,0.00,,OVC014,0.12,VWS V13.01,2013-06-28 20:27:00,
2013-06-28 16:32:00,68.6,64.6,29.54,NW,325,0.0,5.0,87,0.00,,OVC014,0.12,VWS V13.01,2013-06-28 20:32:00,
2013-06-28 16:37:00,68.4,64.4,29.54,NE,46,0.0,3.0,87,0.00,,OVC014,0.12,VWS V13.01,2013-06-28 20:37:00,
2013-06-28 16:42:00,68.2,64.2,29.54,NNW,344,1.0,4.0,87,0.00,,OVC014,0.12,VWS V13.01,2013-06-28 20:42:00,
2013-06-28 16:47:00,67.9,64.2,29.54,North,5,0.0,3.0,88,0.00,,OVC014,0.12,VWS V13.01,2013-06-28 20:47:00,
2013-06-28 16:52:00,67.4,63.4,29.54,NNE,25,0.0,4.0,87,0.00,,OVC014,0.12,VWS V13.01,2013-06-28 20:52:00,
2013-06-28 16:57:00,66.9,63.6,29.54,East,91,6.0,8.0,89,0.00,,OVC014,0.12,VWS V13.01,2013-06-28 20:57:00,
2013-06-28 17:02:00,66.6,63.3,29.55,North,349,2.0,6.0,89,0.00,,OVC020,0.12,VWS V13.01,2013-06-28 21:02:00,
2013-06-28 17:07:00,66.4,63.4,29.55,NW,308,0.0,4.0,90,0.00,,OVC020,0.12,VWS V13.01,2013-06-28 21:07:00,
2013-06-28 17:12:00,66.4,63.1,29.55,ENE,71,0.0,4.0,89,0.00,,OVC020,0.12,VWS V13.01,2013-06-28 21:12:00,
2013-06-28 17:17:00,66.5,63.2,29.55,NW,309,2.0,4.0,89,0.00,,OVC020,0.12,VWS V13.01,2013-06-28 21:17:00,
2013-06-28 17:22:00,66.8,63.5,29.55,NNW,335,2.0,2.0,89,0.00,,OVC020,0.12,VWS V13.01,2013-06-28 21:22:00,
2013-06-28 17:27:00,67.0,63.3,29.55,NNE,28,0.0,4.0,88,0.00,,OVC020,0.12,VWS V13.01,2013-06-28 21:27:00,
2013-06-28 17:32:00,67.1,63.4,29.55,NNW,334,0.0,3.0,88,0.00,,OVC020,0.12,VWS V13.01,2013-06-28 21:32:00,
2013-06-28 17:37:00,67.3,63.6,29.55,NE,51,1.0,4.0,88,0.00,,OVC020,0.12,VWS V13.01,2013-06-28 21:37:00,
2013-06-28 17:42:00,67.2,63.5,29.55,ENE,69,2.0,4.0,88,0.00,,OVC020,0.12,VWS V13.01,2013-06-28 21:42:00,
2013-06-28 17:47:00,67.1,63.4,29.55,NNW,340,0.0,3.0,88,0.00,,OVC020,0.12,VWS V13.01,2013-06-28 21:47:00,
2013-06-28 17:52:00,67.0,63.0,29.55,NE,56,0.0,5.0,87,0.00,,OVC020,0.12,VWS V13.01,2013-06-28 21:52:00,
2013-06-28 17:57:00,66.8,63.1,29.55,NNW,344,1.0,3.0,88,0.00,,OVC020,0.12,VWS V13.01,2013-06-28 21:57:00,
2013-06-28 18:02:00,66.8,63.1,29.55,ENE,76,0.0,3.0,88,0.00,,BKN055,0.12,VWS V13.01,2013-06-28 22:02:00,
2013-06-28 18:07:00,66.8,63.5,29.55,NE,51,3.0,5.0,89,0.00,,BKN055,0.12,VWS V13.01,2013-06-28 22:07:00,
2013-06-28 18:12:00,66.8,63.5,29.55,NE,44,0.0,4.0,89,0.00,,BKN055,0.12,VWS V13.01,2013-06-28 22:12:00,
2013-06-28 18:18:00,67.0,63.7,29.55,North,355,1.0,3.0,89,0.00,,BKN055,0.12,VWS V13.01,2013-06-28 22:18:00,
2013-06-28 18:23:00,67.2,63.8,29.55,ENE,72,2.0,3.0,89,0.00,,BKN055,0.12,VWS V13.01,2013-06-28 22:23:00,
2013-06-28 18:28:00,67.3,63.6,29.55,NE,49,0.0,3.0,88,0.00,,BKN055,0.12,VWS V13.01,2013-06-28 22:28:00,
2013-06-28 18:33:00,67.2,63.5,29.55,North,355,1.0,4.0,88,0.00,,BKN055,0.12,VWS V13.01,2013-06-28 22:33:00,
2013-06-28 18:38:00,67.0,63.3,29.55,NW,319,3.0,5.0,88,0.00,,BKN055,0.12,VWS V13.01,2013-06-28 22:38:00,
2013-06-28 18:43:00,66.8,63.1,29.56,NNE,28,1.0,5.0,88,0.00,,BKN055,0.12,VWS V13.01,2013-06-28 22:43:00,
2013-06-28 18:48:00,66.5,63.2,29.56,NE,36,1.0,3.0,89,0.00,,BKN055,0.12,VWS V13.01,2013-06-28 22:48:00,
2013-06-28 18:53:00,66.1,62.8,29.56,NE,53,1.0,3.0,89,0.00,,BKN055,0.12,VWS V13.01,2013-06-28 22:53:00,
2013-06-28 18:58:00,65.9,62.6,29.56,NE,47,2.0,2.0,89,0.00,,BKN055,0.12,VWS V13.01,2013-06-28 22:58:00,
2013-06-28 19:03:00,65.8,62.8,29.57,ENE,58,1.0,2.0,90,0.00,,OVC025,0.12,VWS V13.01,2013-06-28 23:03:00,
2013-06-28 19:08:00,65.6,62.6,29.57,ENE,76,1.0,6.0,90,0.00,,OVC025,0.12,VWS V13.01,2013-06-28 23:08:00,
2013-06-28 19:13:00,65.5,62.8,29.57,North,11,0.0,3.0,91,0.00,,OVC025,0.12,VWS V13.01,2013-06-28 23:13:00,
2013-06-28 19:18:00,65.4,62.4,29.57,NW,321,1.0,2.0,90,0.00,,OVC025,0.12,VWS V13.01,2013-06-28 23:18:00,
2013-06-28 19:23:00,65.4,62.7,29.57,North,5,0.0,4.0,91,0.00,,OVC025,0.12,VWS V13.01,2013-06-28 23:23:00,
2013-06-28 19:28:00,65.3,62.6,29.57,ENE,72,0.0,2.0,91,0.00,,OVC025,0.12,VWS V13.01,2013-06-28 23:28:00,
2013-06-28 19:33:00,65.2,62.8,29.57,NNW,332,0.0,3.0,92,0.00,,OVC025,0.12,VWS V13.01,2013-06-28 23:33:00,
2013-06-28 19:38:00,65.1,62.7,29.57,East,80,0.0,3.0,92,0.00,,OVC025,0.12,VWS V13.01,2013-06-28 23:38:00,
2013-06-28 19:43:00,65.1,62.7,29.57,North,355,0.0,5.0,92,0.00,,OVC025,0.12,VWS V13.01,2013-06-28 23:43:00,
2013-06-28 19:48:00,65.1,62.7,29.57,ENE,77,0.0,1.0,92,0.00,,OVC025,0.12,VWS V13.01,2013-06-28 23:48:00,
2013-06-28 19:53:00,65.2,62.8,29.57,ENE,76,0.0,1.0,92,0.00,,OVC025,0.12,VWS V13.01,2013-06-28 23:53:00,
2013-06-28 19:58:00,65.2,62.8,29.57,NE,55,0.0,1.0,92,0.00,,OVC025,0.12,VWS V13.01,2013-06-28 23:58:00,
2013-06-28 20:03:00,65.0,62.6,29.57,ENE,66,0.0,3.0,92,0.00,,OVC047,0.12,VWS V13.01,2013-06-29 00:03:00,
2013-06-28 20:08:00,65.0,62.6,29.57,NW,306,0.0,2.0,92,0.00,,OVC047,0.12,VWS V13.01,2013-06-29 00:08:00,
2013-06-28 20:13:00,65.0,62.6,29.58,NW,306,1.0,1.0,92,0.00,,OVC047,0.12,VWS V13.01,2013-06-29 00:13:00,
2013-06-28 20:18:00,64.9,62.5,29.58,NW,313,0.0,2.0,92,0.00,,OVC047,0.12,VWS V13.01,2013-06-29 00:18:00,
2013-06-28 20:23:00,64.9,62.5,29.58,NW,322,0.0,4.0,92,0.00,,OVC047,0.12,VWS V13.01,2013-06-29 00:23:00,
2013-06-28 20:28:00,64.9,62.5,29.58,NW,323,0.0,3.0,92,0.00,,OVC047,0.12,VWS V13.01,2013-06-29 00:28:00,
2013-06-28 20:33:00,64.9,62.5,29.58,North,355,0.0,3.0,92,0.00,,OVC047,0.12,VWS V13.01,2013-06-29 00:33:00,
2013-06-28 20:39:00,64.9,62.5,29.58,North,355,0.0,1.0,92,0.00,,OVC047,0.12,VWS V13.01,2013-06-29 00:39:00,
2013-06-28 20:44:00,64.9,62.5,29.58,ENE,74,0.0,1.0,92,0.00,,OVC047,0.12,VWS V13.01,2013-06-29 00:44:00,
2013-06-28 20:49:00,64.8,62.4,29.58,NE,43,0.0,2.0,92,0.00,,OVC047,0.12,VWS V13.01,2013-06-29 00:49:00,
2013-06-28 20:54:00,64.8,62.4,29.58,NE,36,0.0,2.0,92,0.00,,OVC047,0.12,VWS V13.01,2013-06-29 00:54:00,
2013-06-28 20:59:00,64.8,62.4,29.58,North,5,0.0,2.0,92,0.00,,OVC047,0.12,VWS V13.01,2013-06-29 00:59:00,
2013-06-28 21:04:00,64.7,62.3,29.58,North,355,0.0,2.0,92,0.00,,OVC045,0.12,VWS V13.01,2013-06-29 01:04:00,
2013-06-28 21:09:00,64.7,62.6,29.58,North,355,0.0,1.0,93,0.00,,OVC045,0.12,VWS V13.01,2013-06-29 01:09:00,
2013-06-28 21:14:00,64.6,62.5,29.58,NW,326,0.0,1.0,93,0.00,,OVC045,0.12,VWS V13.01,2013-06-29 01:14:00,
2013-06-28 21:19:00,64.6,62.5,29.58,NNW,342,0.0,1.0,93,0.00,,OVC045,0.12,VWS V13.01,2013-06-29 01:19:00,
2013-06-28 21:24:00,64.6,62.5,29.58,NNE,15,0.0,3.0,93,0.00,,OVC045,0.12,VWS V13.01,2013-06-29 01:24:00,
2013-06-28 21:29:00,64.5,62.4,29.58,NNW,337,1.0,3.0,93,0.00,,OVC045,0.12,VWS V13.01,2013-06-29 01:29:00,
2013-06-28 21:34:00,64.5,62.4,29.58,NE,40,0.0,2.0,93,0.00,,OVC045,0.12,VWS V13.01,2013-06-29 01:34:00,
2013-06-28 21:39:00,64.4,62.3,29.58,North,350,0.0,1.0,93,0.00,,OVC045,0.12,VWS V13.01,2013-06-29 01:39:00,
2013-06-28 21:44:00,64.4,62.6,29.58,North,350,0.0,0.0,94,0.00,,OVC045,0.12,VWS V13.01,2013-06-29 01:44:00,
2013-06-28 21:49:00,64.4,62.6,29.58,North,350,0.0,0.0,94,0.00,,OVC045,0.12,VWS V13.01,2013-06-29 01:49:00,
2013-06-28 21:54:00,64.4,62.6,29.58,North,350,0.0,0.0,94,0.00,,OVC045,0.12,VWS V13.01,2013-06-29 01:54:00,
2013-06-28 21:59:00,64.3,62.5,29.58,North,351,0.0,0.0,94,0.00,,OVC045,0.12,VWS V13.01,2013-06-29 01:59:00,
2013-06-28 22:04:00,64.3,62.5,29.58,North,351,0.0,0.0,94,0.00,,-RA,0.12,VWS V13.01,2013-06-29 02:04:00,
2013-06-28 22:09:00,64.3,62.5,29.58,North,360,0.0,0.0,94,0.00,,-RA,0.12,VWS V13.01,2013-06-29 02:09:00,
2013-06-28 22:14:00,64.3,62.5,29.58,North,355,0.0,0.0,94,0.00,,-RA,0.12,VWS V13.01,2013-06-29 02:14:00,
2013-06-28 22:19:00,64.3,62.5,29.58,North,355,0.0,0.0,94,0.00,,-RA,0.12,VWS V13.01,2013-06-29 02:19:00,
2013-06-28 22:24:00,64.3,62.5,29.58,North,360,0.0,0.0,94,0.00,,-RA,0.12,VWS V13.01,2013-06-29 02:24:00,
2013-06-28 22:29:00,64.3,62.5,29.58,NNE,22,0.0,0.0,94,0.00,,-RA,0.12,VWS V13.01,2013-06-29 02:29:00,
2013-06-28 22:34:00,64.3,62.5,29.58,NNE,22,0.0,0.0,94,0.00,,-RA,0.12,VWS V13.01,2013-06-29 02:34:00,
2013-06-28 22:39:00,64.3,62.5,29.58,NNE,24,0.0,0.0,94,0.00,,-RA,0.12,VWS V13.01,2013-06-29 02:39:00,
2013-06-28 22:44:00,64.3,62.8,29.58,NNE,16,0.0,2.0,95,0.00,,-RA,0.12,VWS V13.01,2013-06-29 02:44:00,
2013-06-28 22:49:00,64.3,62.8,29.58,North,355,0.0,2.0,95,0.00,,-RA,0.12,VWS V13.01,2013-06-29 02:49:00,
2013-06-28 22:54:00,64.2,62.7,29.58,North,355,0.0,0.0,95,0.01,,-RA,0.13,VWS V13.01,2013-06-29 02:54:00,
2013-06-28 22:59:00,64.1,62.6,29.58,North,355,0.0,0.0,95,0.01,,-RA,0.14,VWS V13.01,2013-06-29 02:59:00,
2013-06-28 23:04:00,64.1,62.6,29.58,NW,317,2.0,2.0,95,0.07,,OVC080,0.21,VWS V13.01,2013-06-29 03:04:00,
2013-06-28 23:09:00,63.9,62.4,29.58,NNW,336,3.0,6.0,95,0.12,,OVC080,0.24,VWS V13.01,2013-06-29 03:09:00,
2013-06-28 23:15:00,63.8,62.6,29.58,NNW,330,2.0,3.0,96,0.12,,OVC080,0.24,VWS V13.01,2013-06-29 03:15:00,
2013-06-28 23:20:00,63.8,62.6,29.58,NNW,336,0.0,3.0,96,0.12,,OVC080,0.24,VWS V13.01,2013-06-29 03:20:00,
2013-06-28 23:25:00,63.7,62.5,29.58,North,350,0.0,2.0,96,0.12,,OVC080,0.24,VWS V13.01,2013-06-29 03:25:00,
2013-06-28 23:30:00,63.6,62.4,29.58,North,350,0.0,0.0,96,0.12,,OVC080,0.24,VWS V13.01,2013-06-29 03:30:00,
2013-06-28 23:35:00,63.6,62.4,29.57,North,350,0.0,1.0,96,0.12,,OVC080,0.24,VWS V13.01,2013-06-29 03:35:00,
2013-06-28 23:40:00,63.6,62.4,29.57,North,350,0.0,0.0,96,0.12,,OVC080,0.24,VWS V13.01,2013-06-29 03:40:00,
2013-06-28 23:45:00,63.6,62.7,29.57,North,350,0.0,1.0,97,0.12,,OVC080,0.24,VWS V13.01,2013-06-29 03:45:00,
2013-06-28 23:50:00,63.6,62.7,29.57,North,350,0.0,0.0,97,0.12,,OVC080,0.24,VWS V13.01,2013-06-29 03:50:00,
2013-06-28 23:55:00,63.6,62.7,29.57,North,350,0.0,0.0,97,0.12,,OVC080,0.24,VWS V13.01,2013-06-29 03:55:00,